createdAt,value
2023-05-13T00:01:23.010Z,99.90
2023-05-13T00:03:49.713Z,99.90
2023-05-13T00:06:16.618Z,99.90
2023-05-13T00:08:43.348Z,99.90
2023-05-13T00:11:10.152Z,99.90
2023-05-13T00:13:37.310Z,99.90
2023-05-13T00:16:04.183Z,99.90
2023-05-13T00:18:30.816Z,99.90
2023-05-13T00:20:57.426Z,99.90
2023-05-13T00:23:24.025Z,99.90
2023-05-13T00:25:50.706Z,99.90
2023-05-13T00:28:17.463Z,99.90
2023-05-13T00:30:45.492Z,99.90
2023-05-13T00:33:12.275Z,99.90
2023-05-13T00:35:38.913Z,99.90
2023-05-13T00:38:05.650Z,99.90
2023-05-13T00:40:36.695Z,99.90
2023-05-13T00:43:03.295Z,99.90
2023-05-13T00:45:30.117Z,99.90
2023-05-13T00:47:56.877Z,99.90
2023-05-13T00:50:23.934Z,99.90
2023-05-13T00:52:51.208Z,99.90
2023-05-13T00:55:17.964Z,99.90
2023-05-13T00:57:44.780Z,99.90
2023-05-13T01:00:12.174Z,99.90
2023-05-13T01:02:56.570Z,99.90
2023-05-13T01:05:35.208Z,99.90
2023-05-13T01:08:22.488Z,99.90
2023-05-13T01:10:56.861Z,99.90
2023-05-13T01:13:26.288Z,99.90
2023-05-13T01:16:11.738Z,99.90
2023-05-13T01:18:44.464Z,99.90
2023-05-13T01:21:12.338Z,99.90
2023-05-13T01:23:38.998Z,99.90
2023-05-13T01:26:05.703Z,99.90
2023-05-13T01:28:32.401Z,99.90
2023-05-13T01:30:59.124Z,99.90
2023-05-13T01:33:26.363Z,99.90
2023-05-13T01:35:53.305Z,99.90
2023-05-13T01:38:21.395Z,99.90
2023-05-13T01:40:48.401Z,99.90
2023-05-13T01:43:15.144Z,99.90
2023-05-13T01:45:41.751Z,99.90
2023-05-13T01:48:08.481Z,99.90
2023-05-13T01:50:35.187Z,99.90
2023-05-13T01:53:01.901Z,99.90
2023-05-13T01:55:28.553Z,99.90
2023-05-13T01:57:55.462Z,99.90
2023-05-13T02:00:22.775Z,99.90
2023-05-13T02:02:49.722Z,99.90
2023-05-13T02:05:16.701Z,99.90
2023-05-13T02:07:43.327Z,99.90
2023-05-13T02:10:10.466Z,99.90
2023-05-13T02:12:37.083Z,99.90
2023-05-13T02:15:04.004Z,99.90
2023-05-13T02:17:30.604Z,99.90
2023-05-13T02:19:57.262Z,99.90
2023-05-13T02:22:24.031Z,99.90
2023-05-13T02:24:50.788Z,99.90
2023-05-13T02:27:17.405Z,99.90
2023-05-13T02:29:44.003Z,99.90
2023-05-13T02:32:10.716Z,99.90
2023-05-13T02:34:37.570Z,99.90
2023-05-13T02:37:04.414Z,99.90
2023-05-13T02:39:31.082Z,99.90
2023-05-13T02:41:57.870Z,99.90
2023-05-13T02:44:24.494Z,99.90
2023-05-13T02:46:51.281Z,99.90
2023-05-13T02:49:17.877Z,99.90
2023-05-13T02:51:46.817Z,99.90
2023-05-13T02:54:13.623Z,99.90
2023-05-13T02:56:40.377Z,99.90
2023-05-13T02:59:06.945Z,99.90
2023-05-13T03:01:33.631Z,99.90
2023-05-13T03:04:00.291Z,99.90
2023-05-13T03:06:27.069Z,99.90
2023-05-13T03:08:53.667Z,99.90
2023-05-13T03:11:21.114Z,99.90
2023-05-13T03:13:47.730Z,99.90
2023-05-13T03:16:14.447Z,99.90
2023-05-13T03:18:41.124Z,99.90
2023-05-13T03:21:07.754Z,99.90
2023-05-13T03:23:34.343Z,99.90
2023-05-13T03:26:02.066Z,99.90
2023-05-13T03:28:28.841Z,99.90
2023-05-13T03:30:55.645Z,99.90
2023-05-13T03:33:22.635Z,99.90
2023-05-13T03:35:49.672Z,99.90
2023-05-13T03:38:16.413Z,99.90
2023-05-13T03:40:43.080Z,99.90
2023-05-13T03:43:09.831Z,99.90
2023-05-13T03:45:36.494Z,99.90
2023-05-13T03:48:03.585Z,99.90
2023-05-13T03:50:30.395Z,99.90
2023-05-13T03:52:57.051Z,99.90
2023-05-13T03:55:23.894Z,99.90
2023-05-13T03:57:50.562Z,99.90
2023-05-13T04:00:17.472Z,99.90
2023-05-13T04:02:44.227Z,99.90
2023-05-13T04:05:13.369Z,99.90
2023-05-13T04:07:40.913Z,99.90
2023-05-13T04:10:08.440Z,99.90
2023-05-13T04:12:35.046Z,99.90
2023-05-13T04:15:01.712Z,99.90
2023-05-13T04:17:28.818Z,99.90
2023-05-13T04:19:55.855Z,99.90
2023-05-13T04:22:24.225Z,99.90
2023-05-13T04:24:56.449Z,99.90
2023-05-13T04:27:24.237Z,99.90
2023-05-13T04:29:50.944Z,99.90
2023-05-13T04:32:21.839Z,99.90
2023-05-13T04:34:49.557Z,99.90
2023-05-13T04:37:16.532Z,99.90
2023-05-13T04:39:46.426Z,99.90
2023-05-13T04:42:16.959Z,99.90
2023-05-13T04:44:44.123Z,99.90
2023-05-13T04:47:11.320Z,99.90
2023-05-13T04:49:37.998Z,99.90
2023-05-13T04:52:07.089Z,99.90
2023-05-13T04:54:35.670Z,99.90
2023-05-13T04:57:02.972Z,99.90
2023-05-13T04:59:29.651Z,99.90
2023-05-13T05:01:56.327Z,99.90
2023-05-13T05:04:23.128Z,99.90
2023-05-13T05:06:49.820Z,99.90
2023-05-13T05:09:17.712Z,99.90
2023-05-13T05:11:50.023Z,99.90
2023-05-13T05:14:17.122Z,99.90
2023-05-13T05:16:43.831Z,99.90
2023-05-13T05:19:10.589Z,99.90
2023-05-13T05:21:37.553Z,99.90
2023-05-13T05:24:05.165Z,99.90
2023-05-13T05:26:31.782Z,99.90
2023-05-13T05:28:58.471Z,99.90
2023-05-13T05:31:26.947Z,99.90
2023-05-13T05:33:53.742Z,99.90
2023-05-13T05:36:20.722Z,99.90
2023-05-13T05:38:47.375Z,99.90
2023-05-13T05:41:14.187Z,99.90
2023-05-13T05:43:40.786Z,99.90
2023-05-13T05:46:07.510Z,99.90
2023-05-13T05:48:34.919Z,99.90
2023-05-13T05:51:01.711Z,99.90
2023-05-13T05:53:28.391Z,99.90
2023-05-13T05:55:55.023Z,99.90
2023-05-13T05:58:21.700Z,99.90
2023-05-13T06:00:48.381Z,99.90
2023-05-13T06:03:15.344Z,99.90
2023-05-13T06:05:42.426Z,99.90
2023-05-13T06:08:09.038Z,99.90
2023-05-13T06:10:35.778Z,99.90
2023-05-13T06:13:02.365Z,99.90
2023-05-13T06:15:29.006Z,99.90
2023-05-13T06:17:55.964Z,99.90
2023-05-13T06:20:23.285Z,99.90
2023-05-13T06:22:50.131Z,99.90
2023-05-13T06:25:16.885Z,99.90
2023-05-13T06:27:43.465Z,99.90
2023-05-13T06:30:10.722Z,99.90
2023-05-13T06:32:38.188Z,99.90
2023-05-13T06:35:07.939Z,99.90
2023-05-13T06:37:34.606Z,99.90
2023-05-13T06:40:01.291Z,99.90
2023-05-13T06:42:27.881Z,99.90
2023-05-13T06:44:54.505Z,99.90
2023-05-13T06:47:23.162Z,99.90
2023-05-13T06:49:50.541Z,99.90
2023-05-13T06:52:17.175Z,99.90
2023-05-13T06:54:43.779Z,99.90
2023-05-13T06:57:10.515Z,99.90
2023-05-13T06:59:37.295Z,99.90
2023-05-13T07:02:04.518Z,99.90
2023-05-13T07:04:31.288Z,99.90
2023-05-13T07:06:57.894Z,99.90
2023-05-13T07:09:24.583Z,99.90
2023-05-13T07:11:51.260Z,99.90
2023-05-13T07:14:17.843Z,99.90
2023-05-13T07:16:44.470Z,99.90
2023-05-13T07:19:11.147Z,99.90
2023-05-13T07:21:38.283Z,99.90
2023-05-13T07:24:05.354Z,99.90
2023-05-13T07:26:32.419Z,99.90
2023-05-13T07:28:59.529Z,99.90
2023-05-13T07:31:26.554Z,99.90
2023-05-13T07:33:53.364Z,99.90
2023-05-13T07:36:19.990Z,99.90
2023-05-13T07:38:46.616Z,99.90
2023-05-13T07:41:13.381Z,99.90
2023-05-13T07:43:40.782Z,99.90
2023-05-13T07:46:07.421Z,99.90
2023-05-13T07:48:34.088Z,99.90
2023-05-13T07:51:01.343Z,99.90
2023-05-13T07:53:28.061Z,99.90
2023-05-13T07:55:54.759Z,99.90
2023-05-13T07:58:21.706Z,99.90
2023-05-13T08:00:49.471Z,99.90
2023-05-13T08:03:16.880Z,99.90
2023-05-13T08:05:43.730Z,99.90
2023-05-13T08:08:10.453Z,99.90
2023-05-13T08:10:37.177Z,99.90
2023-05-13T08:13:03.814Z,99.90
2023-05-13T08:15:30.508Z,99.90
2023-05-13T08:17:57.244Z,99.90
2023-05-13T08:20:29.530Z,99.90
2023-05-13T08:23:00.983Z,99.90
2023-05-13T08:25:27.627Z,99.90
2023-05-13T08:27:54.289Z,99.90
2023-05-13T08:30:20.965Z,99.90
2023-05-13T08:32:47.953Z,99.90
2023-05-13T08:35:14.630Z,99.90
2023-05-13T08:37:41.333Z,99.90
2023-05-13T08:40:09.907Z,99.90
2023-05-13T08:42:39.911Z,99.90
2023-05-13T08:45:08.803Z,99.90
2023-05-13T08:47:57.632Z,99.90
2023-05-13T08:50:25.435Z,99.90
2023-05-13T08:52:56.084Z,99.90
2023-05-13T08:55:24.140Z,99.90
2023-05-13T08:57:51.678Z,99.90
2023-05-13T09:00:20.649Z,99.90
2023-05-13T09:02:49.806Z,99.90
2023-05-13T09:05:17.119Z,99.90
2023-05-13T09:07:43.959Z,99.90
2023-05-13T09:10:11.055Z,99.90
2023-05-13T09:12:54.720Z,99.90
2023-05-13T09:15:24.237Z,99.90
2023-05-13T09:18:09.976Z,99.90
2023-05-13T09:20:37.248Z,99.90
2023-05-13T09:23:05.563Z,99.90
2023-05-13T09:25:33.102Z,99.90
2023-05-13T09:28:01.905Z,99.90
2023-05-13T09:30:32.758Z,99.90
2023-05-13T09:33:12.465Z,99.90
2023-05-13T09:35:41.465Z,99.90
2023-05-13T09:38:18.557Z,99.90
2023-05-13T09:41:01.670Z,99.90
2023-05-13T09:43:32.458Z,99.90
2023-05-13T09:46:04.561Z,99.90
2023-05-13T09:48:34.820Z,99.90
2023-05-13T09:51:01.496Z,99.90
2023-05-13T09:53:28.781Z,99.90
2023-05-13T09:55:57.416Z,99.90
2023-05-13T09:58:25.789Z,99.90
2023-05-13T10:00:52.882Z,99.90
2023-05-13T10:03:19.945Z,99.90
2023-05-13T10:05:48.411Z,99.90
2023-05-13T10:08:15.441Z,99.90
2023-05-13T10:10:45.616Z,99.90
2023-05-13T10:13:16.191Z,99.90
2023-05-13T10:15:50.455Z,99.90
2023-05-13T10:18:18.431Z,99.90
2023-05-13T10:20:46.182Z,99.90
2023-05-13T10:23:13.216Z,99.90
2023-05-13T10:25:41.421Z,99.90
2023-05-13T10:28:09.023Z,99.90
2023-05-13T10:30:36.321Z,99.90
2023-05-13T10:33:04.293Z,99.90
2023-05-13T10:35:38.536Z,99.90
2023-05-13T10:38:52.110Z,99.90
2023-05-13T10:41:37.820Z,99.90
2023-05-13T10:44:05.528Z,99.90
2023-05-13T10:46:34.462Z,99.90
2023-05-13T10:49:01.158Z,99.90
2023-05-13T10:51:27.993Z,99.90
2023-05-13T10:53:57.751Z,99.90
2023-05-13T10:56:26.810Z,99.90
2023-05-13T10:59:02.287Z,99.90
2023-05-13T11:01:43.450Z,99.90
2023-05-13T11:04:19.963Z,99.90
2023-05-13T11:06:49.851Z,99.90
2023-05-13T11:09:30.834Z,99.90
2023-05-13T11:11:59.717Z,99.90
2023-05-13T11:14:27.904Z,99.90
2023-05-13T11:17:06.854Z,99.90
2023-05-13T11:19:39.375Z,99.90
2023-05-13T11:22:12.131Z,99.90
2023-05-13T11:24:39.964Z,99.90
2023-05-13T11:27:18.417Z,99.90
2023-05-13T11:29:50.635Z,99.90
2023-05-13T11:32:52.973Z,99.90
2023-05-13T11:35:23.634Z,99.90
2023-05-13T11:37:50.837Z,99.90
2023-05-13T11:40:24.875Z,99.90
2023-05-13T11:42:52.191Z,99.90
2023-05-13T11:45:20.540Z,99.90
2023-05-13T11:47:47.583Z,99.90
2023-05-13T11:50:21.735Z,99.90
2023-05-13T11:52:56.068Z,99.90
2023-05-13T11:55:35.054Z,99.90
2023-05-13T11:58:02.357Z,99.90
2023-05-13T12:00:29.925Z,99.90
2023-05-13T12:02:57.303Z,99.90
2023-05-13T12:05:24.956Z,99.90
2023-05-13T12:07:55.987Z,99.90
2023-05-13T12:10:23.206Z,99.90
2023-05-13T12:12:50.329Z,99.90
2023-05-13T12:15:18.340Z,99.90
2023-05-13T12:17:45.848Z,99.90
2023-05-13T12:20:23.256Z,99.90
2023-05-13T12:22:52.196Z,99.20
2023-05-13T12:25:38.896Z,98.90
2023-05-13T12:28:18.397Z,96.80
2023-05-13T12:30:53.730Z,96.70
2023-05-13T12:33:25.344Z,96.60
2023-05-13T12:35:54.555Z,96.20
2023-05-13T12:38:23.993Z,95.00
2023-05-13T12:40:52.309Z,93.30
2023-05-13T12:43:20.080Z,91.90
2023-05-13T12:45:51.754Z,91.90
2023-05-13T12:48:23.545Z,90.40
2023-05-13T12:50:51.364Z,90.50
2023-05-13T12:53:18.009Z,89.70
2023-05-13T12:55:44.650Z,87.90
2023-05-13T12:58:12.990Z,88.90
2023-05-13T13:00:39.859Z,87.90
2023-05-13T13:03:07.910Z,84.70
2023-05-13T13:05:34.989Z,86.90
2023-05-13T13:08:02.215Z,87.60
2023-05-13T13:10:29.072Z,89.20
2023-05-13T13:12:55.658Z,90.50
2023-05-13T13:15:22.464Z,90.60
2023-05-13T13:17:49.336Z,91.20
2023-05-13T13:20:16.161Z,91.90
2023-05-13T13:22:42.834Z,93.40
2023-05-13T13:25:09.762Z,93.90
2023-05-13T13:27:36.407Z,94.40
2023-05-13T13:30:03.285Z,95.40
2023-05-13T13:32:29.958Z,95.50
2023-05-13T13:34:58.197Z,96.20
2023-05-13T13:37:24.880Z,95.30
2023-05-13T13:39:51.602Z,95.90
2023-05-13T13:42:18.244Z,95.80
2023-05-13T13:44:45.003Z,95.80
2023-05-13T13:47:11.728Z,95.70
2023-05-13T13:49:38.332Z,96.00
2023-05-13T13:52:05.138Z,96.40
2023-05-13T13:54:31.848Z,96.30
2023-05-13T13:56:58.837Z,95.70
2023-05-13T13:59:25.548Z,95.40
2023-05-13T14:01:53.737Z,95.30
2023-05-13T14:04:23.799Z,94.80
2023-05-13T14:06:53.183Z,94.70
2023-05-13T14:09:19.793Z,96.10
2023-05-13T14:11:46.576Z,95.30
2023-05-13T14:14:13.460Z,96.40
2023-05-13T14:16:40.262Z,96.30
2023-05-13T14:19:06.916Z,96.40
2023-05-13T14:21:33.620Z,96.30
2023-05-13T14:24:00.234Z,96.90
2023-05-13T14:26:27.085Z,97.30
2023-05-13T14:29:00.359Z,97.00
2023-05-13T14:31:27.010Z,97.30
2023-05-13T14:33:53.622Z,96.90
2023-05-13T14:36:22.326Z,96.70
2023-05-13T14:38:48.945Z,96.50
2023-05-13T14:41:20.666Z,96.60
2023-05-13T14:43:47.537Z,95.90
2023-05-13T14:46:14.864Z,96.00
2023-05-13T14:48:41.585Z,94.70
2023-05-13T14:51:08.526Z,94.20
2023-05-13T14:53:35.261Z,94.80
2023-05-13T14:56:02.236Z,93.40
2023-05-13T14:58:29.076Z,93.50
2023-05-13T15:00:55.962Z,93.60
2023-05-13T15:03:22.687Z,93.50
2023-05-13T15:05:50.095Z,93.70
2023-05-13T15:08:16.984Z,93.90
2023-05-13T15:10:43.610Z,94.00
2023-05-13T15:13:10.274Z,94.70
2023-05-13T15:15:36.899Z,94.10
2023-05-13T15:18:03.750Z,93.70
2023-05-13T15:20:30.513Z,94.40
2023-05-13T15:22:57.733Z,94.20
2023-05-13T15:25:24.509Z,93.40
2023-05-13T15:27:51.304Z,93.30
2023-05-13T15:30:17.942Z,93.10
2023-05-13T15:32:44.614Z,92.30
2023-05-13T15:35:11.397Z,92.20
2023-05-13T15:37:38.036Z,92.50
2023-05-13T15:40:05.455Z,93.00
2023-05-13T15:42:32.197Z,93.60
2023-05-13T15:44:58.877Z,94.10
2023-05-13T15:47:25.710Z,93.60
2023-05-13T15:49:54.069Z,93.70
2023-05-13T15:52:21.114Z,94.50
2023-05-13T15:54:47.772Z,94.40
2023-05-13T15:57:14.859Z,94.60
2023-05-13T15:59:41.506Z,94.70
2023-05-13T16:02:08.283Z,95.00
2023-05-13T16:04:35.082Z,95.30
2023-05-13T16:07:01.750Z,95.50
2023-05-13T16:09:28.374Z,95.60
2023-05-13T16:11:55.447Z,95.50
2023-05-13T16:14:22.057Z,95.70
2023-05-13T16:16:48.749Z,96.60
2023-05-13T16:19:15.546Z,97.00
2023-05-13T16:21:42.320Z,96.70
2023-05-13T16:24:09.005Z,96.00
2023-05-13T16:26:36.054Z,96.60
2023-05-13T16:29:02.933Z,96.20
2023-05-13T16:31:29.572Z,96.10
2023-05-13T16:33:56.404Z,95.80
2023-05-13T16:36:23.059Z,95.70
2023-05-13T16:38:49.900Z,95.90
2023-05-13T16:41:16.529Z,96.50
2023-05-13T16:43:43.154Z,96.20
2023-05-13T16:46:09.739Z,96.30
2023-05-13T16:48:36.686Z,96.00
2023-05-13T16:51:03.952Z,96.40
2023-05-13T16:53:30.759Z,96.20
2023-05-13T16:55:57.371Z,96.00
2023-05-13T16:58:24.051Z,96.00
2023-05-13T17:00:50.782Z,95.50
2023-05-13T17:03:17.586Z,95.10
2023-05-13T17:05:44.449Z,95.00
2023-05-13T17:08:11.141Z,93.80
2023-05-13T17:10:37.748Z,93.60
2023-05-13T17:13:04.364Z,93.90
2023-05-13T17:15:31.049Z,94.00
2023-05-13T17:17:57.726Z,93.40
2023-05-13T17:20:24.614Z,93.40
2023-05-13T17:22:51.351Z,93.60
2023-05-13T17:25:18.080Z,94.20
2023-05-13T17:27:44.738Z,94.40
2023-05-13T17:30:11.997Z,94.60
2023-05-13T17:32:38.636Z,94.80
2023-05-13T17:35:05.985Z,95.40
2023-05-13T17:37:32.603Z,95.80
2023-05-13T17:40:01.332Z,96.00
2023-05-13T17:42:28.972Z,96.10
2023-05-13T17:44:55.787Z,96.10
2023-05-13T17:47:22.477Z,96.10
2023-05-13T17:49:49.114Z,96.50
2023-05-13T17:52:15.771Z,96.50
2023-05-13T17:54:42.364Z,96.50
2023-05-13T17:57:10.911Z,96.70
2023-05-13T17:59:37.733Z,96.90
2023-05-13T18:02:04.494Z,97.00
2023-05-13T18:04:31.247Z,97.20
2023-05-13T18:06:57.939Z,97.50
2023-05-13T18:09:24.592Z,97.80
2023-05-13T18:11:51.236Z,98.00
2023-05-13T18:14:17.856Z,98.50
2023-05-13T18:16:44.584Z,99.00
2023-05-13T18:19:11.310Z,99.40
2023-05-13T18:21:38.039Z,99.90
2023-05-13T18:24:05.126Z,99.90
2023-05-13T18:26:31.818Z,99.90
2023-05-13T18:28:58.596Z,99.90
2023-05-13T18:31:25.317Z,99.90
2023-05-13T18:33:52.056Z,99.90
2023-05-13T18:36:18.663Z,99.90
2023-05-13T18:38:47.700Z,99.90
2023-05-13T18:41:14.346Z,99.90
2023-05-13T18:43:41.004Z,99.90
2023-05-13T18:46:07.803Z,99.90
2023-05-13T18:48:34.416Z,99.90
2023-05-13T18:51:01.047Z,99.90
2023-05-13T18:53:27.674Z,99.90
2023-05-13T18:55:54.440Z,99.90
2023-05-13T18:58:21.143Z,99.90
2023-05-13T19:00:47.780Z,99.90
2023-05-13T19:03:15.135Z,99.90
2023-05-13T19:05:41.882Z,99.90
2023-05-13T19:08:08.472Z,99.90
2023-05-13T19:10:39.616Z,99.90
2023-05-13T19:13:07.318Z,99.90
2023-05-13T19:15:34.097Z,99.90
2023-05-13T19:18:00.960Z,99.90
2023-05-13T19:20:27.755Z,99.90
2023-05-13T19:22:54.373Z,99.90
2023-05-13T19:25:21.027Z,99.90
2023-05-13T19:27:49.282Z,99.90
2023-05-13T19:30:15.936Z,99.90
2023-05-13T19:32:43.502Z,99.90
2023-05-13T19:35:10.831Z,99.90
2023-05-13T19:37:37.573Z,99.90
2023-05-13T19:40:04.785Z,99.90
2023-05-13T19:42:31.567Z,99.90
2023-05-13T19:44:58.252Z,99.90
2023-05-13T19:47:26.767Z,99.90
2023-05-13T19:49:53.828Z,99.90
2023-05-13T19:52:20.723Z,99.90
2023-05-13T19:54:47.353Z,99.90
2023-05-13T19:57:14.006Z,99.90
2023-05-13T19:59:41.713Z,99.90
2023-05-13T20:02:08.811Z,99.90
2023-05-13T20:04:35.592Z,99.90
2023-05-13T20:07:02.215Z,99.90
2023-05-13T20:09:28.826Z,99.90
2023-05-13T20:11:55.512Z,99.90
2023-05-13T20:14:23.180Z,99.90
2023-05-13T20:16:49.899Z,99.90
2023-05-13T20:19:16.524Z,99.90
2023-05-13T20:21:43.461Z,99.90
2023-05-13T20:24:10.160Z,99.90
2023-05-13T20:26:36.790Z,99.90
2023-05-13T20:29:03.903Z,99.90
2023-05-13T20:31:30.539Z,99.90
2023-05-13T20:33:58.354Z,99.90
2023-05-13T20:36:24.965Z,99.90
2023-05-13T20:38:51.545Z,99.90
2023-05-13T20:41:18.410Z,99.90
2023-05-13T20:43:45.033Z,99.90
2023-05-13T20:46:16.534Z,99.90
2023-05-13T20:48:43.401Z,99.90
2023-05-13T20:51:10.067Z,99.90
2023-05-13T20:53:37.138Z,99.90
2023-05-13T20:56:04.054Z,99.90
2023-05-13T20:58:31.246Z,99.90
2023-05-13T21:00:58.095Z,99.90
2023-05-13T21:03:25.049Z,99.90
2023-05-13T21:05:51.742Z,99.90
2023-05-13T21:08:18.394Z,99.90
2023-05-13T21:10:44.985Z,99.90
2023-05-13T21:13:11.675Z,99.90
2023-05-13T21:15:38.564Z,99.90
2023-05-13T21:18:05.307Z,99.90
2023-05-13T21:20:32.715Z,99.90
2023-05-13T21:23:00.806Z,99.90
2023-05-13T21:25:27.609Z,99.90
2023-05-13T21:27:54.280Z,99.90
2023-05-13T21:30:21.211Z,99.90
2023-05-13T21:32:48.111Z,99.90
2023-05-13T21:35:14.893Z,99.90
2023-05-13T21:37:41.556Z,99.90
2023-05-13T21:40:08.935Z,99.90
2023-05-13T21:42:35.724Z,99.90
2023-05-13T21:45:03.075Z,99.90
2023-05-13T21:47:29.738Z,99.90
2023-05-13T21:49:56.504Z,99.90
2023-05-13T21:52:23.165Z,99.90
2023-05-13T21:54:49.795Z,99.90
2023-05-13T21:57:16.740Z,99.90
2023-05-13T21:59:43.380Z,99.90
2023-05-13T22:02:10.214Z,99.90
2023-05-13T22:04:36.924Z,99.90
2023-05-13T22:07:03.702Z,99.90
2023-05-13T22:09:30.409Z,99.90
2023-05-13T22:11:57.068Z,99.90
2023-05-13T22:14:23.677Z,99.90
2023-05-13T22:17:07.232Z,99.90
2023-05-13T22:19:35.569Z,99.90
2023-05-13T22:22:02.225Z,99.90
2023-05-13T22:24:28.833Z,99.90
2023-05-13T22:26:55.568Z,99.90
2023-05-13T22:29:22.248Z,99.90
2023-05-13T22:31:48.986Z,99.90
2023-05-13T22:34:15.619Z,99.90
2023-05-13T22:36:43.962Z,99.90
2023-05-13T22:39:12.210Z,99.90
2023-05-13T22:41:38.873Z,99.90
2023-05-13T22:44:05.618Z,99.90
2023-05-13T22:46:32.478Z,99.90
2023-05-13T22:48:59.216Z,99.90
2023-05-13T22:51:25.846Z,99.90
2023-05-13T22:53:52.461Z,99.90
2023-05-13T22:56:19.107Z,99.90
2023-05-13T22:58:45.960Z,99.90
2023-05-13T23:01:12.767Z,99.90
2023-05-13T23:03:39.542Z,99.90
2023-05-13T23:06:06.339Z,99.90
2023-05-13T23:08:33.100Z,99.90
2023-05-13T23:10:59.747Z,99.90
2023-05-13T23:13:26.373Z,99.90
2023-05-13T23:15:53.132Z,99.90
2023-05-13T23:18:19.784Z,99.90
2023-05-13T23:20:50.957Z,99.90
2023-05-13T23:23:17.715Z,99.90
2023-05-13T23:25:45.725Z,99.90
2023-05-13T23:28:12.734Z,99.90
2023-05-13T23:30:40.022Z,99.90
2023-05-13T23:33:07.206Z,99.90
2023-05-13T23:35:34.126Z,99.90
2023-05-13T23:38:01.399Z,99.90
2023-05-13T23:40:28.238Z,99.90
2023-05-13T23:42:54.904Z,99.90
2023-05-13T23:45:21.639Z,99.90
2023-05-13T23:47:51.316Z,99.90
2023-05-13T23:50:18.011Z,99.90
2023-05-13T23:52:44.625Z,99.90
2023-05-13T23:55:11.288Z,99.90
2023-05-13T23:57:38.215Z,99.90
